sensor_id;sensor_type;location;lat;lon;timestamp;pressure;altitude;pressure_sealevel;temperature;humidity
64908;BME280;69061;52.236;5.188;2024-02-21T00:00:16;102089.75;;;10.38;92.54
64908;BME280;69061;52.236;5.188;2024-02-21T00:02:43;102092.41;;;10.38;93.01
64908;BME280;69061;52.236;5.188;2024-02-21T00:05:09;102090.84;;;10.37;93.23
64908;BME280;69061;52.236;5.188;2024-02-21T00:07:36;102089.41;;;10.39;93.08
64908;BME280;69061;52.236;5.188;2024-02-21T00:10:03;102076.91;;;10.40;93.08
64908;BME280;69061;52.236;5.188;2024-02-21T00:12:30;102081.53;;;10.43;92.76
64908;BME280;69061;52.236;5.188;2024-02-21T00:14:57;102083.09;;;10.44;93.18
64908;BME280;69061;52.236;5.188;2024-02-21T00:17:25;102082.13;;;10.49;93.39
64908;BME280;69061;52.236;5.188;2024-02-21T00:19:52;102078.47;;;10.53;92.88
64908;BME280;69061;52.236;5.188;2024-02-21T00:22:18;102073.16;;;10.53;92.69
64908;BME280;69061;52.236;5.188;2024-02-21T00:24:45;102089.09;;;10.53;92.78
64908;BME280;69061;52.236;5.188;2024-02-21T00:27:12;102074.69;;;10.54;93.30
64908;BME280;69061;52.236;5.188;2024-02-21T00:29:38;102064.63;;;10.60;93.02
64908;BME280;69061;52.236;5.188;2024-02-21T00:32:06;102088.88;;;10.58;92.76
64908;BME280;69061;52.236;5.188;2024-02-21T00:34:34;102086.31;;;10.62;93.05
64908;BME280;69061;52.236;5.188;2024-02-21T00:37:00;102086.44;;;10.66;93.53
64908;BME280;69061;52.236;5.188;2024-02-21T00:39:29;102082.81;;;10.70;93.93
64908;BME280;69061;52.236;5.188;2024-02-21T00:41:56;102083.56;;;10.71;93.34
64908;BME280;69061;52.236;5.188;2024-02-21T00:44:22;102081.34;;;10.73;93.70
64908;BME280;69061;52.236;5.188;2024-02-21T00:46:49;102066.84;;;10.70;92.80
64908;BME280;69061;52.236;5.188;2024-02-21T00:49:16;102062.97;;;10.68;92.69
64908;BME280;69061;52.236;5.188;2024-02-21T00:51:44;102059.97;;;10.69;92.58
64908;BME280;69061;52.236;5.188;2024-02-21T00:54:10;102061.75;;;10.65;93.04
64908;BME280;69061;52.236;5.188;2024-02-21T00:56:37;102056.31;;;10.61;92.85
64908;BME280;69061;52.236;5.188;2024-02-21T00:59:04;102066.19;;;10.61;92.51
64908;BME280;69061;52.236;5.188;2024-02-21T01:01:30;102072.59;;;10.60;93.49
64908;BME280;69061;52.236;5.188;2024-02-21T01:03:57;102057.88;;;10.63;93.29
64908;BME280;69061;52.236;5.188;2024-02-21T01:06:23;102060.94;;;10.65;93.21
64908;BME280;69061;52.236;5.188;2024-02-21T01:08:51;102055.22;;;10.63;93.41
64908;BME280;69061;52.236;5.188;2024-02-21T01:11:18;102054.53;;;10.66;92.59
64908;BME280;69061;52.236;5.188;2024-02-21T01:13:44;102060.19;;;10.64;93.11
64908;BME280;69061;52.236;5.188;2024-02-21T01:16:11;102051.88;;;10.66;92.92
64908;BME280;69061;52.236;5.188;2024-02-21T01:18:38;102059.84;;;10.66;93.04
64908;BME280;69061;52.236;5.188;2024-02-21T01:21:06;102044.56;;;10.63;92.98
64908;BME280;69061;52.236;5.188;2024-02-21T01:23:33;102043.00;;;10.61;93.79
64908;BME280;69061;52.236;5.188;2024-02-21T01:26:01;102040.91;;;10.67;93.32
64908;BME280;69061;52.236;5.188;2024-02-21T01:28:28;102033.72;;;10.68;93.22
64908;BME280;69061;52.236;5.188;2024-02-21T01:30:56;102028.28;;;10.64;93.32
64908;BME280;69061;52.236;5.188;2024-02-21T01:33:22;102028.63;;;10.63;93.37
64908;BME280;69061;52.236;5.188;2024-02-21T01:35:49;102023.72;;;10.65;94.37
64908;BME280;69061;52.236;5.188;2024-02-21T01:38:16;102013.09;;;10.65;93.67
64908;BME280;69061;52.236;5.188;2024-02-21T01:40:45;102013.97;;;10.69;93.71
64908;BME280;69061;52.236;5.188;2024-02-21T01:43:17;102002.03;;;10.63;93.01
64908;BME280;69061;52.236;5.188;2024-02-21T01:45:48;102001.16;;;10.58;92.95
64908;BME280;69061;52.236;5.188;2024-02-21T01:48:17;101997.63;;;10.54;93.22
64908;BME280;69061;52.236;5.188;2024-02-21T01:50:44;101993.59;;;10.60;92.80
64908;BME280;69061;52.236;5.188;2024-02-21T01:53:13;102001.16;;;10.58;93.40
64908;BME280;69061;52.236;5.188;2024-02-21T01:55:44;101989.72;;;10.58;92.70
64908;BME280;69061;52.236;5.188;2024-02-21T01:58:13;101991.19;;;10.55;92.96
64908;BME280;69061;52.236;5.188;2024-02-21T02:00:42;101993.53;;;10.57;92.86
64908;BME280;69061;52.236;5.188;2024-02-21T02:03:10;101998.38;;;10.55;93.39
64908;BME280;69061;52.236;5.188;2024-02-21T02:05:42;101995.38;;;10.56;93.23
64908;BME280;69061;52.236;5.188;2024-02-21T02:08:09;101994.75;;;10.59;93.15
64908;BME280;69061;52.236;5.188;2024-02-21T02:10:36;101984.09;;;10.59;93.80
64908;BME280;69061;52.236;5.188;2024-02-21T02:13:03;101979.44;;;10.56;94.00
64908;BME280;69061;52.236;5.188;2024-02-21T02:15:37;101974.66;;;10.62;93.85
64908;BME280;69061;52.236;5.188;2024-02-21T02:18:06;101967.91;;;10.65;93.18
64908;BME280;69061;52.236;5.188;2024-02-21T02:20:33;101967.91;;;10.65;93.64
64908;BME280;69061;52.236;5.188;2024-02-21T02:23:02;101977.88;;;10.68;93.56
64908;BME280;69061;52.236;5.188;2024-02-21T02:25:33;101974.09;;;10.69;93.48
64908;BME280;69061;52.236;5.188;2024-02-21T02:28:03;101977.97;;;10.71;93.50
64908;BME280;69061;52.236;5.188;2024-02-21T02:30:32;101968.47;;;10.70;93.22
64908;BME280;69061;52.236;5.188;2024-02-21T02:32:58;101963.91;;;10.71;93.29
64908;BME280;69061;52.236;5.188;2024-02-21T02:35:25;101946.75;;;10.68;93.79
64908;BME280;69061;52.236;5.188;2024-02-21T02:37:52;101953.50;;;10.66;93.80
64908;BME280;69061;52.236;5.188;2024-02-21T02:40:18;101955.59;;;10.72;93.17
64908;BME280;69061;52.236;5.188;2024-02-21T02:42:46;101964.34;;;10.73;94.08
64908;BME280;69061;52.236;5.188;2024-02-21T02:45:14;101960.69;;;10.77;93.59
64908;BME280;69061;52.236;5.188;2024-02-21T02:47:41;101959.13;;;10.76;93.81
64908;BME280;69061;52.236;5.188;2024-02-21T02:50:08;101953.47;;;10.78;93.78
64908;BME280;69061;52.236;5.188;2024-02-21T02:52:35;101941.28;;;10.77;94.42
64908;BME280;69061;52.236;5.188;2024-02-21T02:55:04;101935.75;;;10.82;94.32
64908;BME280;69061;52.236;5.188;2024-02-21T02:57:31;101940.41;;;10.85;93.95
64908;BME280;69061;52.236;5.188;2024-02-21T03:00:00;101938.84;;;10.84;94.24
64908;BME280;69061;52.236;5.188;2024-02-21T03:02:26;101934.28;;;10.85;94.11
64908;BME280;69061;52.236;5.188;2024-02-21T03:04:53;101939.63;;;10.85;94.08
64908;BME280;69061;52.236;5.188;2024-02-21T03:07:20;101939.28;;;10.86;94.37
64908;BME280;69061;52.236;5.188;2024-02-21T03:09:49;101923.78;;;10.88;93.79
64908;BME280;69061;52.236;5.188;2024-02-21T03:12:16;101925.97;;;10.86;93.58
64908;BME280;69061;52.236;5.188;2024-02-21T03:14:49;101920.56;;;10.83;92.96
64908;BME280;69061;52.236;5.188;2024-02-21T03:17:17;101915.16;;;10.79;92.95
64908;BME280;69061;52.236;5.188;2024-02-21T03:19:44;101901.41;;;10.77;93.23
64908;BME280;69061;52.236;5.188;2024-02-21T03:22:11;101896.34;;;10.72;94.25
64908;BME280;69061;52.236;5.188;2024-02-21T03:24:38;101888.72;;;10.70;94.15
64908;BME280;69061;52.236;5.188;2024-02-21T03:27:04;101887.22;;;10.73;94.47
64908;BME280;69061;52.236;5.188;2024-02-21T03:29:31;101891.44;;;10.74;93.77
64908;BME280;69061;52.236;5.188;2024-02-21T03:31:58;101889.59;;;10.74;93.66
64908;BME280;69061;52.236;5.188;2024-02-21T03:34:26;101880.91;;;10.77;93.85
64908;BME280;69061;52.236;5.188;2024-02-21T03:36:52;101876.38;;;10.78;92.60
64908;BME280;69061;52.236;5.188;2024-02-21T03:39:19;101866.31;;;10.71;93.15
64908;BME280;69061;52.236;5.188;2024-02-21T03:41:46;101867.09;;;10.72;92.98
64908;BME280;69061;52.236;5.188;2024-02-21T03:44:13;101871.72;;;10.75;93.02
64908;BME280;69061;52.236;5.188;2024-02-21T03:46:40;101864.31;;;10.68;93.23
64908;BME280;69061;52.236;5.188;2024-02-21T03:49:06;101870.75;;;10.67;93.90
64908;BME280;69061;52.236;5.188;2024-02-21T03:51:34;101877.28;;;10.70;93.72
64908;BME280;69061;52.236;5.188;2024-02-21T03:54:01;101866.75;;;10.73;93.54
64908;BME280;69061;52.236;5.188;2024-02-21T03:56:28;101865.53;;;10.71;92.88
64908;BME280;69061;52.236;5.188;2024-02-21T03:58:55;101858.56;;;10.66;93.16
64908;BME280;69061;52.236;5.188;2024-02-21T04:01:22;101850.59;;;10.66;93.16
64908;BME280;69061;52.236;5.188;2024-02-21T04:03:48;101856.25;;;10.65;92.98
64908;BME280;69061;52.236;5.188;2024-02-21T04:06:15;101862.94;;;10.58;93.20
64908;BME280;69061;52.236;5.188;2024-02-21T04:08:43;101856.50;;;10.59;93.13
64908;BME280;69061;52.236;5.188;2024-02-21T04:11:11;101858.38;;;10.59;93.64
64908;BME280;69061;52.236;5.188;2024-02-21T04:13:38;101849.72;;;10.62;93.77
64908;BME280;69061;52.236;5.188;2024-02-21T04:16:04;101840.97;;;10.61;93.12
64908;BME280;69061;52.236;5.188;2024-02-21T04:18:32;101841.66;;;10.58;93.61
64908;BME280;69061;52.236;5.188;2024-02-21T04:20:59;101845.53;;;10.61;94.08
64908;BME280;69061;52.236;5.188;2024-02-21T04:23:25;101841.66;;;10.58;93.61
64908;BME280;69061;52.236;5.188;2024-02-21T04:25:53;101840.56;;;10.59;94.00
64908;BME280;69061;52.236;5.188;2024-02-21T04:28:21;101840.00;;;10.54;93.77
64908;BME280;69061;52.236;5.188;2024-02-21T04:30:48;101839.91;;;10.50;93.57
64908;BME280;69061;52.236;5.188;2024-02-21T04:33:16;101843.69;;;10.49;94.21
64908;BME280;69061;52.236;5.188;2024-02-21T04:35:43;101836.91;;;10.52;94.06
64908;BME280;69061;52.236;5.188;2024-02-21T04:38:10;101845.88;;;10.47;93.65
64908;BME280;69061;52.236;5.188;2024-02-21T04:40:36;101841.25;;;10.44;93.54
64908;BME280;69061;52.236;5.188;2024-02-21T04:43:05;101832.84;;;10.42;93.42
64908;BME280;69061;52.236;5.188;2024-02-21T04:45:31;101828.19;;;10.39;93.65
64908;BME280;69061;52.236;5.188;2024-02-21T04:47:58;101830.28;;;10.33;93.96
64908;BME280;69061;52.236;5.188;2024-02-21T04:50:25;101825.31;;;10.32;93.47
64908;BME280;69061;52.236;5.188;2024-02-21T04:52:52;101821.78;;;10.27;93.90
64908;BME280;69061;52.236;5.188;2024-02-21T04:55:19;101815.78;;;10.31;93.83
64908;BME280;69061;52.236;5.188;2024-02-21T04:57:45;101811.91;;;10.28;93.82
64908;BME280;69061;52.236;5.188;2024-02-21T05:00:14;101819.47;;;10.26;93.98
64908;BME280;69061;52.236;5.188;2024-02-21T05:02:41;101818.34;;;10.27;93.64
64908;BME280;69061;52.236;5.188;2024-02-21T05:05:08;101816.34;;;10.24;94.37
64908;BME280;69061;52.236;5.188;2024-02-21T05:07:35;101809.72;;;10.30;94.23
64908;BME280;69061;52.236;5.188;2024-02-21T05:10:02;101812.47;;;10.21;93.82
64908;BME280;69061;52.236;5.188;2024-02-21T05:12:28;101800.41;;;10.24;93.32
64908;BME280;69061;52.236;5.188;2024-02-21T05:14:56;101793.13;;;10.21;93.61
64908;BME280;69061;52.236;5.188;2024-02-21T05:17:24;101797.66;;;10.20;93.54
64908;BME280;69061;52.236;5.188;2024-02-21T05:19:51;101793.00;;;10.17;93.57
64908;BME280;69061;52.236;5.188;2024-02-21T05:22:17;101793.34;;;10.16;93.58
64908;BME280;69061;52.236;5.188;2024-02-21T05:24:44;101795.91;;;10.12;93.31
64908;BME280;69061;52.236;5.188;2024-02-21T05:27:11;101780.22;;;10.07;94.21
64908;BME280;69061;52.236;5.188;2024-02-21T05:29:38;101775.53;;;10.04;94.14
64908;BME280;69061;52.236;5.188;2024-02-21T05:32:05;101763.41;;;10.03;94.25
64908;BME280;69061;52.236;5.188;2024-02-21T05:34:34;101762.28;;;10.04;94.35
64908;BME280;69061;52.236;5.188;2024-02-21T05:37:01;101748.91;;;10.00;94.26
64908;BME280;69061;52.236;5.188;2024-02-21T05:39:28;101751.91;;;9.99;94.64
64908;BME280;69061;52.236;5.188;2024-02-21T05:41:55;101748.13;;;10.00;94.48
64908;BME280;69061;52.236;5.188;2024-02-21T05:44:22;101741.84;;;9.92;94.74
64908;BME280;69061;52.236;5.188;2024-02-21T05:46:51;101741.34;;;10.02;94.36
64908;BME280;69061;52.236;5.188;2024-02-21T05:49:18;101733.06;;;10.04;94.19
64908;BME280;69061;52.236;5.188;2024-02-21T05:51:46;101723.78;;;9.98;94.25
64908;BME280;69061;52.236;5.188;2024-02-21T05:54:12;101726.78;;;9.96;94.46
64908;BME280;69061;52.236;5.188;2024-02-21T05:56:44;101731.53;;;10.03;94.27
64908;BME280;69061;52.236;5.188;2024-02-21T05:59:11;101720.69;;;9.95;94.47
64908;BME280;69061;52.236;5.188;2024-02-21T06:01:37;101718.38;;;9.94;95.25
64908;BME280;69061;52.236;5.188;2024-02-21T06:04:05;101731.31;;;9.95;95.07
64908;BME280;69061;52.236;5.188;2024-02-21T06:06:32;101717.50;;;9.90;95.24
64908;BME280;69061;52.236;5.188;2024-02-21T06:09:00;101720.59;;;9.92;94.86
64908;BME280;69061;52.236;5.188;2024-02-21T06:11:28;101711.19;;;9.94;95.06
64908;BME280;69061;52.236;5.188;2024-02-21T06:13:55;101710.06;;;9.95;95.32
64908;BME280;69061;52.236;5.188;2024-02-21T06:16:23;101716.25;;;10.00;94.86
64908;BME280;69061;52.236;5.188;2024-02-21T06:18:51;101715.72;;;9.94;94.99
64908;BME280;69061;52.236;5.188;2024-02-21T06:21:18;101716.81;;;9.93;94.84
64908;BME280;69061;52.236;5.188;2024-02-21T06:23:45;101718.72;;;9.92;95.43
64908;BME280;69061;52.236;5.188;2024-02-21T06:26:13;101717.59;;;9.93;95.26
64908;BME280;69061;52.236;5.188;2024-02-21T06:28:40;101724.22;;;10.00;94.88
64908;BME280;69061;52.236;5.188;2024-02-21T06:31:06;101733.53;;;9.93;95.43
64908;BME280;69061;52.236;5.188;2024-02-21T06:33:33;101732.09;;;9.96;94.94
64908;BME280;69061;52.236;5.188;2024-02-21T06:35:59;101722.56;;;9.95;95.37
64908;BME280;69061;52.236;5.188;2024-02-21T06:38:27;101729.78;;;9.94;95.00
64908;BME280;69061;52.236;5.188;2024-02-21T06:40:55;101724.00;;;9.92;95.01
64908;BME280;69061;52.236;5.188;2024-02-21T06:43:27;101721.38;;;9.92;95.10
64908;BME280;69061;52.236;5.188;2024-02-21T06:45:53;101719.16;;;9.94;95.61
64908;BME280;69061;52.236;5.188;2024-02-21T06:48:22;101724.56;;;9.98;95.09
64908;BME280;69061;52.236;5.188;2024-02-21T06:50:49;101718.47;;;9.98;95.39
64908;BME280;69061;52.236;5.188;2024-02-21T06:53:16;101714.72;;;9.99;94.66
64908;BME280;69061;52.236;5.188;2024-02-21T06:55:47;101704.00;;;9.95;95.58
64908;BME280;69061;52.236;5.188;2024-02-21T06:58:14;101713.69;;;10.03;95.38
64908;BME280;69061;52.236;5.188;2024-02-21T07:00:43;101705.63;;;10.00;94.58
64908;BME280;69061;52.236;5.188;2024-02-21T07:03:10;101700.56;;;9.94;95.10
64908;BME280;69061;52.236;5.188;2024-02-21T07:05:40;101701.44;;;9.99;95.07
64908;BME280;69061;52.236;5.188;2024-02-21T07:08:07;101694.00;;;10.04;94.77
64908;BME280;69061;52.236;5.188;2024-02-21T07:10:33;101691.91;;;9.98;94.79
64908;BME280;69061;52.236;5.188;2024-02-21T07:13:00;101693.47;;;9.99;94.48
64908;BME280;69061;52.236;5.188;2024-02-21T07:15:27;101696.69;;;9.92;94.53
64908;BME280;69061;52.236;5.188;2024-02-21T07:17:57;101692.16;;;9.92;95.09
64908;BME280;69061;52.236;5.188;2024-02-21T07:20:24;101691.06;;;9.93;94.68
64908;BME280;69061;52.236;5.188;2024-02-21T07:22:51;101688.41;;;9.93;94.70
64908;BME280;69061;52.236;5.188;2024-02-21T07:25:17;101688.75;;;9.92;94.91
64908;BME280;69061;52.236;5.188;2024-02-21T07:27:45;101690.59;;;9.91;94.59
64908;BME280;69061;52.236;5.188;2024-02-21T07:30:12;101683.16;;;9.97;94.64
64908;BME280;69061;52.236;5.188;2024-02-21T07:32:39;101680.44;;;9.93;93.64
64908;BME280;69061;52.236;5.188;2024-02-21T07:35:08;101676.56;;;9.91;94.17
64908;BME280;69061;52.236;5.188;2024-02-21T07:37:36;101660.97;;;9.89;94.08
64908;BME280;69061;52.236;5.188;2024-02-21T07:40:04;101656.00;;;9.88;94.05
64908;BME280;69061;52.236;5.188;2024-02-21T07:42:31;101654.09;;;9.88;94.50
64908;BME280;69061;52.236;5.188;2024-02-21T07:44:58;101627.09;;;9.86;94.67
64908;BME280;69061;52.236;5.188;2024-02-21T07:47:25;101631.84;;;9.93;94.67
64908;BME280;69061;52.236;5.188;2024-02-21T07:49:51;101629.75;;;9.99;93.63
64908;BME280;69061;52.236;5.188;2024-02-21T07:52:20;101622.88;;;9.98;93.54
64908;BME280;69061;52.236;5.188;2024-02-21T07:54:47;101629.63;;;9.95;93.51
64908;BME280;69061;52.236;5.188;2024-02-21T07:57:13;101623.34;;;9.87;93.89
64908;BME280;69061;52.236;5.188;2024-02-21T07:59:40;101630.22;;;9.88;94.36
64908;BME280;69061;52.236;5.188;2024-02-21T08:02:07;101625.78;;;9.92;94.00
64908;BME280;69061;52.236;5.188;2024-02-21T08:04:37;101624.66;;;9.93;94.15
64908;BME280;69061;52.236;5.188;2024-02-21T08:07:03;101641.69;;;9.92;94.37
64908;BME280;69061;52.236;5.188;2024-02-21T08:09:31;101619.78;;;9.95;93.82
64908;BME280;69061;52.236;5.188;2024-02-21T08:11:58;101625.88;;;9.96;93.75
64908;BME280;69061;52.236;5.188;2024-02-21T08:14:25;101624.22;;;9.91;93.69
64908;BME280;69061;52.236;5.188;2024-02-21T08:16:52;101626.88;;;9.91;94.03
64908;BME280;69061;52.236;5.188;2024-02-21T08:19:20;101621.91;;;9.90;93.99
64908;BME280;69061;52.236;5.188;2024-02-21T08:21:47;101610.28;;;9.94;94.23
64908;BME280;69061;52.236;5.188;2024-02-21T08:24:14;101609.16;;;9.95;93.57
64908;BME280;69061;52.236;5.188;2024-02-21T08:26:42;101607.19;;;9.92;94.01
64908;BME280;69061;52.236;5.188;2024-02-21T08:29:10;101593.56;;;9.94;93.97
64908;BME280;69061;52.236;5.188;2024-02-21T08:31:36;101595.47;;;9.93;93.67
64908;BME280;69061;52.236;5.188;2024-02-21T08:34:03;101588.59;;;9.92;93.75
64908;BME280;69061;52.236;5.188;2024-02-21T08:36:30;101576.88;;;9.93;94.18
64908;BME280;69061;52.236;5.188;2024-02-21T08:38:57;101574.97;;;9.94;93.90
64908;BME280;69061;52.236;5.188;2024-02-21T08:41:25;101573.03;;;10.07;93.55
64908;BME280;69061;52.236;5.188;2024-02-21T08:43:55;101566.19;;;10.06;92.97
64908;BME280;69061;52.236;5.188;2024-02-21T08:46:22;101574.56;;;10.08;93.10
64908;BME280;69061;52.236;5.188;2024-02-21T08:48:49;101567.03;;;10.10;92.33
64908;BME280;69061;52.236;5.188;2024-02-21T08:51:18;101555.69;;;9.97;92.63
64908;BME280;69061;52.236;5.188;2024-02-21T08:53:55;101562.41;;;10.07;92.98
64908;BME280;69061;52.236;5.188;2024-02-21T08:56:22;101564.16;;;10.15;93.20
64908;BME280;69061;52.236;5.188;2024-02-21T08:58:48;101565.16;;;10.10;92.37
64908;BME280;69061;52.236;5.188;2024-02-21T09:01:18;101561.91;;;10.17;92.49
64908;BME280;69061;52.236;5.188;2024-02-21T09:03:47;101562.75;;;10.21;93.09
64908;BME280;69061;52.236;5.188;2024-02-21T09:06:17;101558.75;;;10.27;92.11
64908;BME280;69061;52.236;5.188;2024-02-21T09:08:45;101562.50;;;10.26;91.54
64908;BME280;69061;52.236;5.188;2024-02-21T09:11:11;101550.09;;;10.31;91.94
64908;BME280;69061;52.236;5.188;2024-02-21T09:13:38;101546.66;;;10.30;91.44
64908;BME280;69061;52.236;5.188;2024-02-21T09:16:05;101537.25;;;10.33;91.31
64908;BME280;69061;52.236;5.188;2024-02-21T09:18:33;101542.72;;;10.24;91.70
64908;BME280;69061;52.236;5.188;2024-02-21T09:21:00;101532.69;;;10.33;91.56
64908;BME280;69061;52.236;5.188;2024-02-21T09:23:27;101524.91;;;10.40;90.14
64908;BME280;69061;52.236;5.188;2024-02-21T09:25:54;101516.53;;;10.38;90.28
64908;BME280;69061;52.236;5.188;2024-02-21T09:28:22;101512.66;;;10.36;90.31
64908;BME280;69061;52.236;5.188;2024-02-21T09:30:48;101512.13;;;10.30;90.40
64908;BME280;69061;52.236;5.188;2024-02-21T09:33:15;101511.63;;;10.40;89.79
64908;BME280;69061;52.236;5.188;2024-02-21T09:35:43;101500.50;;;10.35;89.35
64908;BME280;69061;52.236;5.188;2024-02-21T09:38:10;101498.63;;;10.35;89.92
64908;BME280;69061;52.236;5.188;2024-02-21T09:40:38;101491.16;;;10.41;88.75
64908;BME280;69061;52.236;5.188;2024-02-21T09:43:06;101484.47;;;10.31;89.30
64908;BME280;69061;52.236;5.188;2024-02-21T09:45:34;101475.22;;;10.41;89.76
64908;BME280;69061;52.236;5.188;2024-02-21T09:48:19;101466.38;;;10.37;88.22
64908;BME280;69061;52.236;5.188;2024-02-21T09:50:51;101458.81;;;10.39;88.72
64908;BME280;69061;52.236;5.188;2024-02-21T09:53:19;101456.88;;;10.36;89.23
64908;BME280;69061;52.236;5.188;2024-02-21T09:55:48;101440.31;;;10.42;89.00
64908;BME280;69061;52.236;5.188;2024-02-21T09:58:15;101435.34;;;10.41;88.70
64908;BME280;69061;52.236;5.188;2024-02-21T10:00:44;101429.00;;;10.45;88.69
64908;BME280;69061;52.236;5.188;2024-02-21T10:03:10;101417.59;;;10.45;88.94
64908;BME280;69061;52.236;5.188;2024-02-21T10:05:47;101415.94;;;10.56;88.80
64908;BME280;69061;52.236;5.188;2024-02-21T10:08:16;101413.56;;;10.71;87.81
64908;BME280;69061;52.236;5.188;2024-02-21T10:10:43;101405.13;;;10.65;88.13
64908;BME280;69061;52.236;5.188;2024-02-21T10:13:10;101399.53;;;10.70;87.57
64908;BME280;69061;52.236;5.188;2024-02-21T10:15:37;101402.31;;;10.77;87.51
64908;BME280;69061;52.236;5.188;2024-02-21T10:18:04;101391.06;;;10.84;86.88
64908;BME280;69061;52.236;5.188;2024-02-21T10:20:33;101390.00;;;10.89;86.45
64908;BME280;69061;52.236;5.188;2024-02-21T10:23:00;101386.22;;;10.90;86.40
64908;BME280;69061;52.236;5.188;2024-02-21T10:25:29;101384.03;;;10.95;86.11
64908;BME280;69061;52.236;5.188;2024-02-21T10:27:56;101369.56;;;10.93;84.56
64908;BME280;69061;52.236;5.188;2024-02-21T10:30:23;101368.25;;;11.03;85.15
64908;BME280;69061;52.236;5.188;2024-02-21T10:32:50;101361.00;;;11.03;84.97
64908;BME280;69061;52.236;5.188;2024-02-21T10:35:25;101362.06;;;10.99;83.37
64908;BME280;69061;52.236;5.188;2024-02-21T10:37:53;101348.34;;;10.97;83.91
64908;BME280;69061;52.236;5.188;2024-02-21T10:40:22;101340.38;;;10.97;84.66
64908;BME280;69061;52.236;5.188;2024-02-21T10:42:52;101343.75;;;10.93;84.48
64908;BME280;69061;52.236;5.188;2024-02-21T10:45:23;101339.66;;;11.00;84.55
64908;BME280;69061;52.236;5.188;2024-02-21T10:47:55;101316.56;;;11.04;84.31
64908;BME280;69061;52.236;5.188;2024-02-21T10:50:25;101298.66;;;11.01;83.56
64908;BME280;69061;52.236;5.188;2024-02-21T10:52:58;101301.03;;;11.06;83.90
64908;BME280;69061;52.236;5.188;2024-02-21T10:55:35;101293.06;;;11.06;84.07
64908;BME280;69061;52.236;5.188;2024-02-21T10:58:05;101271.16;;;11.16;83.03
64908;BME280;69061;52.236;5.188;2024-02-21T11:00:33;101252.06;;;11.10;83.03
64908;BME280;69061;52.236;5.188;2024-02-21T11:03:01;101254.88;;;11.18;83.36
64908;BME280;69061;52.236;5.188;2024-02-21T11:05:28;101314.69;;;11.27;81.50
64908;BME280;69061;52.236;5.188;2024-02-21T11:07:56;101322.84;;;11.15;81.61
64908;BME280;69061;52.236;5.188;2024-02-21T11:10:24;101323.84;;;11.07;81.34
64908;BME280;69061;52.236;5.188;2024-02-21T11:12:52;101327.91;;;11.01;82.13
64908;BME280;69061;52.236;5.188;2024-02-21T11:15:26;101325.19;;;10.97;82.52
64908;BME280;69061;52.236;5.188;2024-02-21T11:17:53;101314.41;;;10.90;82.44
64908;BME280;69061;52.236;5.188;2024-02-21T11:20:32;101325.06;;;10.90;83.15
64908;BME280;69061;52.236;5.188;2024-02-21T11:22:59;101315.13;;;10.87;83.65
64908;BME280;69061;52.236;5.188;2024-02-21T11:25:26;101305.72;;;10.93;83.80
64908;BME280;69061;52.236;5.188;2024-02-21T11:27:59;101297.41;;;10.94;83.44
64908;BME280;69061;52.236;5.188;2024-02-21T11:30:30;101286.44;;;10.96;82.28
64908;BME280;69061;52.236;5.188;2024-02-21T11:33:01;101269.97;;;10.90;82.92
64908;BME280;69061;52.236;5.188;2024-02-21T11:35:31;101274.00;;;10.81;83.65
64908;BME280;69061;52.236;5.188;2024-02-21T11:38:08;101265.72;;;10.86;83.52
64908;BME280;69061;52.236;5.188;2024-02-21T11:40:38;101237.25;;;10.86;83.15
64908;BME280;69061;52.236;5.188;2024-02-21T11:43:04;101247.81;;;10.83;83.18
64908;BME280;69061;52.236;5.188;2024-02-21T11:45:32;101243.63;;;10.82;82.45
64908;BME280;69061;52.236;5.188;2024-02-21T11:47:59;101234.88;;;10.81;82.20
64908;BME280;69061;52.236;5.188;2024-02-21T11:50:29;101236.75;;;10.81;82.48
64908;BME280;69061;52.236;5.188;2024-02-21T11:52:57;101219.41;;;10.87;82.60
64908;BME280;69061;52.236;5.188;2024-02-21T11:55:24;101193.19;;;10.85;82.96
64908;BME280;69061;52.236;5.188;2024-02-21T11:57:50;101183.41;;;10.93;82.91
64908;BME280;69061;52.236;5.188;2024-02-21T12:00:18;101159.28;;;11.05;82.16
64908;BME280;69061;52.236;5.188;2024-02-21T12:02:48;101159.41;;;11.12;82.29
64908;BME280;69061;52.236;5.188;2024-02-21T12:05:16;101139.69;;;11.17;81.29
64908;BME280;69061;52.236;5.188;2024-02-21T12:07:43;101132.28;;;11.30;81.27
64908;BME280;69061;52.236;5.188;2024-02-21T12:10:10;101130.00;;;11.32;81.29
64908;BME280;69061;52.236;5.188;2024-02-21T12:12:37;101121.03;;;11.44;80.81
64908;BME280;69061;52.236;5.188;2024-02-21T12:15:05;101113.56;;;11.53;81.10
64908;BME280;69061;52.236;5.188;2024-02-21T12:17:33;101107.91;;;11.58;81.28
64908;BME280;69061;52.236;5.188;2024-02-21T12:20:02;101118.69;;;11.69;81.24
64908;BME280;69061;52.236;5.188;2024-02-21T12:22:30;101111.09;;;11.71;80.84
64908;BME280;69061;52.236;5.188;2024-02-21T12:24:58;101106.56;;;11.72;81.41
64908;BME280;69061;52.236;5.188;2024-02-21T12:27:27;101105.81;;;11.75;80.39
64908;BME280;69061;52.236;5.188;2024-02-21T12:29:54;101095.91;;;11.72;81.10
64908;BME280;69061;52.236;5.188;2024-02-21T12:32:20;101077.97;;;11.65;80.27
64908;BME280;69061;52.236;5.188;2024-02-21T12:34:47;101081.44;;;11.73;79.56
64908;BME280;69061;52.236;5.188;2024-02-21T12:37:16;101062.69;;;11.62;80.41
64908;BME280;69061;52.236;5.188;2024-02-21T12:39:43;101058.06;;;11.55;80.35
64908;BME280;69061;52.236;5.188;2024-02-21T12:42:10;101048.22;;;11.59;80.92
64908;BME280;69061;52.236;5.188;2024-02-21T12:44:37;101046.41;;;11.67;80.58
64908;BME280;69061;52.236;5.188;2024-02-21T12:47:04;101034.69;;;11.75;80.65
64908;BME280;69061;52.236;5.188;2024-02-21T12:49:31;101016.72;;;11.65;79.70
64908;BME280;69061;52.236;5.188;2024-02-21T12:51:59;101023.53;;;11.62;79.40
64908;BME280;69061;52.236;5.188;2024-02-21T12:54:27;101004.38;;;11.50;78.61